sensor_id;sensor_type;location;lat;lon;timestamp;temperature;humidity
8422;DHT22;4248;48.196;10.924;2023-12-28T00:00:42;4.20;24.80
8422;DHT22;4248;48.196;10.924;2023-12-28T00:03:07;4.50;24.20
8422;DHT22;4248;48.196;10.924;2023-12-28T00:05:33;4.70;23.80
8422;DHT22;4248;48.196;10.924;2023-12-28T00:07:58;4.70;23.30
8422;DHT22;4248;48.196;10.924;2023-12-28T00:10:25;4.70;23.40
8422;DHT22;4248;48.196;10.924;2023-12-28T00:12:51;4.70;23.40
8422;DHT22;4248;48.196;10.924;2023-12-28T00:15:17;4.80;23.40
8422;DHT22;4248;48.196;10.924;2023-12-28T00:17:43;4.80;23.50
8422;DHT22;4248;48.196;10.924;2023-12-28T00:20:09;4.80;23.40
8422;DHT22;4248;48.196;10.924;2023-12-28T00:22:34;4.80;23.40
8422;DHT22;4248;48.196;10.924;2023-12-28T00:25:03;4.70;23.30
8422;DHT22;4248;48.196;10.924;2023-12-28T00:27:29;4.60;23.30
8422;DHT22;4248;48.196;10.924;2023-12-28T00:29:54;4.60;23.30
8422;DHT22;4248;48.196;10.924;2023-12-28T00:32:20;4.50;23.20
8422;DHT22;4248;48.196;10.924;2023-12-28T00:34:46;4.40;23.60
8422;DHT22;4248;48.196;10.924;2023-12-28T00:37:11;4.40;23.30
8422;DHT22;4248;48.196;10.924;2023-12-28T00:39:36;4.50;23.20
8422;DHT22;4248;48.196;10.924;2023-12-28T00:42:04;4.70;23.40
8422;DHT22;4248;48.196;10.924;2023-12-28T00:44:29;4.80;23.40
8422;DHT22;4248;48.196;10.924;2023-12-28T00:46:55;4.90;22.70
8422;DHT22;4248;48.196;10.924;2023-12-28T00:49:20;5.00;22.60
8422;DHT22;4248;48.196;10.924;2023-12-28T00:51:46;5.00;22.50
8422;DHT22;4248;48.196;10.924;2023-12-28T00:54:11;4.90;22.40
8422;DHT22;4248;48.196;10.924;2023-12-28T00:56:37;4.80;22.40
8422;DHT22;4248;48.196;10.924;2023-12-28T00:59:02;4.90;22.30
8422;DHT22;4248;48.196;10.924;2023-12-28T01:01:28;4.90;22.20
8422;DHT22;4248;48.196;10.924;2023-12-28T01:03:56;4.90;22.10
8422;DHT22;4248;48.196;10.924;2023-12-28T01:06:21;4.80;22.10
8422;DHT22;4248;48.196;10.924;2023-12-28T01:08:47;4.80;22.10
8422;DHT22;4248;48.196;10.924;2023-12-28T01:11:12;4.80;22.10
8422;DHT22;4248;48.196;10.924;2023-12-28T01:13:38;4.80;21.90
8422;DHT22;4248;48.196;10.924;2023-12-28T01:16:04;4.80;21.90
8422;DHT22;4248;48.196;10.924;2023-12-28T01:18:29;4.80;21.70
8422;DHT22;4248;48.196;10.924;2023-12-28T01:20:55;4.80;21.70
8422;DHT22;4248;48.196;10.924;2023-12-28T01:23:20;4.70;21.60
8422;DHT22;4248;48.196;10.924;2023-12-28T01:25:46;4.70;21.60
8422;DHT22;4248;48.196;10.924;2023-12-28T01:28:12;4.50;21.70
8422;DHT22;4248;48.196;10.924;2023-12-28T01:30:37;4.20;22.00
8422;DHT22;4248;48.196;10.924;2023-12-28T01:33:03;3.90;22.60
8422;DHT22;4248;48.196;10.924;2023-12-28T01:35:29;3.80;22.70
8422;DHT22;4248;48.196;10.924;2023-12-28T01:37:55;3.70;22.70
8422;DHT22;4248;48.196;10.924;2023-12-28T01:40:20;3.70;22.70
8422;DHT22;4248;48.196;10.924;2023-12-28T01:42:46;3.80;22.70
8422;DHT22;4248;48.196;10.924;2023-12-28T01:45:11;3.90;22.00
8422;DHT22;4248;48.196;10.924;2023-12-28T01:47:37;4.00;21.70
8422;DHT22;4248;48.196;10.924;2023-12-28T01:50:03;4.10;21.40
8422;DHT22;4248;48.196;10.924;2023-12-28T01:52:31;4.10;21.20
8422;DHT22;4248;48.196;10.924;2023-12-28T01:54:57;4.20;21.10
8422;DHT22;4248;48.196;10.924;2023-12-28T01:57:22;4.20;20.90
8422;DHT22;4248;48.196;10.924;2023-12-28T01:59:49;4.20;20.80
8422;DHT22;4248;48.196;10.924;2023-12-28T02:02:16;4.20;20.80
8422;DHT22;4248;48.196;10.924;2023-12-28T02:04:41;4.10;20.80
8422;DHT22;4248;48.196;10.924;2023-12-28T02:07:08;4.10;20.90
8422;DHT22;4248;48.196;10.924;2023-12-28T02:09:33;4.10;20.80
8422;DHT22;4248;48.196;10.924;2023-12-28T02:11:59;4.00;20.90
8422;DHT22;4248;48.196;10.924;2023-12-28T02:14:25;4.00;20.80
8422;DHT22;4248;48.196;10.924;2023-12-28T02:17:04;3.90;20.90
8422;DHT22;4248;48.196;10.924;2023-12-28T02:19:40;3.80;20.90
8422;DHT22;4248;48.196;10.924;2023-12-28T02:22:08;3.80;21.00
8422;DHT22;4248;48.196;10.924;2023-12-28T02:27:18;3.60;21.20
8422;DHT22;4248;48.196;10.924;2023-12-28T02:29:44;3.50;21.30
8422;DHT22;4248;48.196;10.924;2023-12-28T02:32:10;3.40;21.40
8422;DHT22;4248;48.196;10.924;2023-12-28T02:34:39;3.30;21.40
8422;DHT22;4248;48.196;10.924;2023-12-28T02:37:07;3.30;21.60
8422;DHT22;4248;48.196;10.924;2023-12-28T02:39:33;3.20;21.80
8422;DHT22;4248;48.196;10.924;2023-12-28T02:41:58;3.10;21.80
8422;DHT22;4248;48.196;10.924;2023-12-28T02:44:24;3.00;21.80
8422;DHT22;4248;48.196;10.924;2023-12-28T02:46:49;3.00;21.80
8422;DHT22;4248;48.196;10.924;2023-12-28T02:49:15;3.00;21.80
8422;DHT22;4248;48.196;10.924;2023-12-28T02:51:41;3.10;21.60
8422;DHT22;4248;48.196;10.924;2023-12-28T02:54:08;3.10;21.60
8422;DHT22;4248;48.196;10.924;2023-12-28T02:56:33;3.10;21.50
8422;DHT22;4248;48.196;10.924;2023-12-28T02:58:59;3.00;21.50
8422;DHT22;4248;48.196;10.924;2023-12-28T03:01:24;3.00;21.60
8422;DHT22;4248;48.196;10.924;2023-12-28T03:03:50;3.00;21.70
8422;DHT22;4248;48.196;10.924;2023-12-28T03:09:38;3.10;21.30
8422;DHT22;4248;48.196;10.924;2023-12-28T03:12:05;3.00;21.80
8422;DHT22;4248;48.196;10.924;2023-12-28T03:14:40;2.90;22.20
8422;DHT22;4248;48.196;10.924;2023-12-28T03:17:06;2.90;22.20
8422;DHT22;4248;48.196;10.924;2023-12-28T03:19:31;2.90;22.20
8422;DHT22;4248;48.196;10.924;2023-12-28T03:21:57;3.20;21.80
8422;DHT22;4248;48.196;10.924;2023-12-28T03:24:22;3.50;21.40
8422;DHT22;4248;48.196;10.924;2023-12-28T03:26:48;3.50;21.20
8422;DHT22;4248;48.196;10.924;2023-12-28T03:29:13;3.40;21.30
8422;DHT22;4248;48.196;10.924;2023-12-28T03:31:39;3.30;21.60
8422;DHT22;4248;48.196;10.924;2023-12-28T03:34:06;3.20;21.80
8422;DHT22;4248;48.196;10.924;2023-12-28T03:36:31;3.10;22.30
8422;DHT22;4248;48.196;10.924;2023-12-28T03:38:57;3.00;22.30
8422;DHT22;4248;48.196;10.924;2023-12-28T03:41:22;3.00;22.20
8422;DHT22;4248;48.196;10.924;2023-12-28T03:43:48;3.00;22.10
8422;DHT22;4248;48.196;10.924;2023-12-28T03:46:14;3.00;22.20
8422;DHT22;4248;48.196;10.924;2023-12-28T03:48:39;3.00;22.00
8422;DHT22;4248;48.196;10.924;2023-12-28T03:51:05;3.00;21.90
8422;DHT22;4248;48.196;10.924;2023-12-28T03:53:31;3.10;21.60
8422;DHT22;4248;48.196;10.924;2023-12-28T03:55:58;3.10;21.50
8422;DHT22;4248;48.196;10.924;2023-12-28T03:58:24;3.10;21.70
8422;DHT22;4248;48.196;10.924;2023-12-28T04:00:49;3.10;21.60
8422;DHT22;4248;48.196;10.924;2023-12-28T04:03:15;3.10;21.70
8422;DHT22;4248;48.196;10.924;2023-12-28T04:05:40;3.10;21.80
8422;DHT22;4248;48.196;10.924;2023-12-28T04:08:06;3.00;22.00
8422;DHT22;4248;48.196;10.924;2023-12-28T04:10:33;3.00;22.10
8422;DHT22;4248;48.196;10.924;2023-12-28T04:12:59;3.10;22.00
8422;DHT22;4248;48.196;10.924;2023-12-28T04:15:26;3.10;21.90
8422;DHT22;4248;48.196;10.924;2023-12-28T04:17:52;3.20;21.50
8422;DHT22;4248;48.196;10.924;2023-12-28T04:20:17;3.30;21.40
8422;DHT22;4248;48.196;10.924;2023-12-28T04:22:43;3.30;21.30
8422;DHT22;4248;48.196;10.924;2023-12-28T04:25:11;3.40;21.30
8422;DHT22;4248;48.196;10.924;2023-12-28T04:27:38;3.40;21.20
8422;DHT22;4248;48.196;10.924;2023-12-28T04:30:05;3.40;21.20
8422;DHT22;4248;48.196;10.924;2023-12-28T04:32:34;3.50;21.10
8422;DHT22;4248;48.196;10.924;2023-12-28T04:34:59;3.60;20.80
8422;DHT22;4248;48.196;10.924;2023-12-28T04:37:25;3.60;20.80
8422;DHT22;4248;48.196;10.924;2023-12-28T04:39:53;3.50;21.00
8422;DHT22;4248;48.196;10.924;2023-12-28T04:42:19;3.50;21.20
8422;DHT22;4248;48.196;10.924;2023-12-28T04:44:45;3.40;21.20
8422;DHT22;4248;48.196;10.924;2023-12-28T04:47:10;3.20;21.40
8422;DHT22;4248;48.196;10.924;2023-12-28T04:49:36;3.00;21.70
8422;DHT22;4248;48.196;10.924;2023-12-28T04:52:01;2.90;22.20
8422;DHT22;4248;48.196;10.924;2023-12-28T04:54:27;2.80;22.10
8422;DHT22;4248;48.196;10.924;2023-12-28T04:56:53;2.80;22.10
8422;DHT22;4248;48.196;10.924;2023-12-28T04:59:18;2.80;22.10
8422;DHT22;4248;48.196;10.924;2023-12-28T05:01:44;2.80;22.10
8422;DHT22;4248;48.196;10.924;2023-12-28T05:04:10;2.80;22.10
8422;DHT22;4248;48.196;10.924;2023-12-28T05:06:36;2.80;22.00
8422;DHT22;4248;48.196;10.924;2023-12-28T05:09:02;2.80;21.90
8422;DHT22;4248;48.196;10.924;2023-12-28T05:11:27;2.80;22.00
8422;DHT22;4248;48.196;10.924;2023-12-28T05:17:15;2.80;21.90
8422;DHT22;4248;48.196;10.924;2023-12-28T05:19:41;2.80;21.70
8422;DHT22;4248;48.196;10.924;2023-12-28T05:22:06;2.80;21.70
8422;DHT22;4248;48.196;10.924;2023-12-28T05:24:33;2.80;21.60
8422;DHT22;4248;48.196;10.924;2023-12-28T05:26:59;2.80;21.80
8422;DHT22;4248;48.196;10.924;2023-12-28T05:29:25;2.80;21.50
8422;DHT22;4248;48.196;10.924;2023-12-28T05:31:50;2.90;21.50
8422;DHT22;4248;48.196;10.924;2023-12-28T05:34:16;3.00;21.40
8422;DHT22;4248;48.196;10.924;2023-12-28T05:36:41;3.10;21.30
8422;DHT22;4248;48.196;10.924;2023-12-28T05:39:07;3.10;21.20
8422;DHT22;4248;48.196;10.924;2023-12-28T05:41:35;3.20;21.20
8422;DHT22;4248;48.196;10.924;2023-12-28T05:44:00;3.10;21.30
8422;DHT22;4248;48.196;10.924;2023-12-28T05:46:26;3.00;21.40
8422;DHT22;4248;48.196;10.924;2023-12-28T05:48:51;2.90;21.40
8422;DHT22;4248;48.196;10.924;2023-12-28T05:51:17;2.90;22.00
8422;DHT22;4248;48.196;10.924;2023-12-28T05:53:44;2.90;21.60
8422;DHT22;4248;48.196;10.924;2023-12-28T05:56:09;2.90;21.50
8422;DHT22;4248;48.196;10.924;2023-12-28T05:58:35;2.90;21.50
8422;DHT22;4248;48.196;10.924;2023-12-28T06:01:02;2.80;21.60
8422;DHT22;4248;48.196;10.924;2023-12-28T06:03:30;2.70;21.90
8422;DHT22;4248;48.196;10.924;2023-12-28T06:05:56;2.60;22.00
8422;DHT22;4248;48.196;10.924;2023-12-28T06:08:21;2.50;21.90
8422;DHT22;4248;48.196;10.924;2023-12-28T06:10:47;2.40;21.80
8422;DHT22;4248;48.196;10.924;2023-12-28T06:13:12;2.30;21.80
8422;DHT22;4248;48.196;10.924;2023-12-28T06:15:38;2.30;21.80
8422;DHT22;4248;48.196;10.924;2023-12-28T06:18:04;2.30;21.80
8422;DHT22;4248;48.196;10.924;2023-12-28T06:20:30;2.40;21.80
8422;DHT22;4248;48.196;10.924;2023-12-28T06:22:55;2.60;22.00
8422;DHT22;4248;48.196;10.924;2023-12-28T06:25:21;2.70;22.60
8422;DHT22;4248;48.196;10.924;2023-12-28T06:27:46;2.90;21.20
8422;DHT22;4248;48.196;10.924;2023-12-28T06:30:12;3.10;20.90
8422;DHT22;4248;48.196;10.924;2023-12-28T06:32:38;3.20;20.80
8422;DHT22;4248;48.196;10.924;2023-12-28T06:35:04;3.30;20.60
8422;DHT22;4248;48.196;10.924;2023-12-28T06:37:30;3.50;20.30
8422;DHT22;4248;48.196;10.924;2023-12-28T06:39:55;3.60;20.10
8422;DHT22;4248;48.196;10.924;2023-12-28T06:42:21;3.70;20.10
8422;DHT22;4248;48.196;10.924;2023-12-28T06:44:46;3.70;20.10
8422;DHT22;4248;48.196;10.924;2023-12-28T06:47:12;3.70;20.00
8422;DHT22;4248;48.196;10.924;2023-12-28T06:49:38;3.80;20.10
8422;DHT22;4248;48.196;10.924;2023-12-28T06:52:04;3.90;19.90
8422;DHT22;4248;48.196;10.924;2023-12-28T06:54:29;4.00;19.70
8422;DHT22;4248;48.196;10.924;2023-12-28T06:56:55;4.00;19.60
8422;DHT22;4248;48.196;10.924;2023-12-28T06:59:20;4.10;19.60
8422;DHT22;4248;48.196;10.924;2023-12-28T07:01:46;4.20;19.40
8422;DHT22;4248;48.196;10.924;2023-12-28T07:04:13;4.30;20.30
8422;DHT22;4248;48.196;10.924;2023-12-28T07:06:39;4.50;19.10
8422;DHT22;4248;48.196;10.924;2023-12-28T07:09:05;4.50;19.90
8422;DHT22;4248;48.196;10.924;2023-12-28T07:11:31;4.60;18.80
8422;DHT22;4248;48.196;10.924;2023-12-28T07:13:56;4.70;18.70
8422;DHT22;4248;48.196;10.924;2023-12-28T07:16:22;4.90;18.70
8422;DHT22;4248;48.196;10.924;2023-12-28T07:18:47;4.90;18.50
8422;DHT22;4248;48.196;10.924;2023-12-28T07:21:13;4.90;18.60
8422;DHT22;4248;48.196;10.924;2023-12-28T07:23:38;4.90;19.10
8422;DHT22;4248;48.196;10.924;2023-12-28T07:26:04;4.80;18.80
8422;DHT22;4248;48.196;10.924;2023-12-28T07:28:30;4.80;18.90
8422;DHT22;4248;48.196;10.924;2023-12-28T07:30:56;4.90;18.80
8422;DHT22;4248;48.196;10.924;2023-12-28T07:33:22;5.10;18.60
8422;DHT22;4248;48.196;10.924;2023-12-28T07:35:48;5.30;18.30
8422;DHT22;4248;48.196;10.924;2023-12-28T07:38:13;5.40;17.80
8422;DHT22;4248;48.196;10.924;2023-12-28T07:40:39;5.50;17.50
8422;DHT22;4248;48.196;10.924;2023-12-28T07:43:05;5.60;17.30
8422;DHT22;4248;48.196;10.924;2023-12-28T07:45:30;5.80;17.10
8422;DHT22;4248;48.196;10.924;2023-12-28T07:47:59;5.90;16.90
8422;DHT22;4248;48.196;10.924;2023-12-28T07:50:24;6.00;16.70
8422;DHT22;4248;48.196;10.924;2023-12-28T07:52:50;5.80;16.90
8422;DHT22;4248;48.196;10.924;2023-12-28T07:55:16;5.70;17.10
8422;DHT22;4248;48.196;10.924;2023-12-28T07:57:41;5.60;17.40
8422;DHT22;4248;48.196;10.924;2023-12-28T08:00:08;5.50;17.60
8422;DHT22;4248;48.196;10.924;2023-12-28T08:02:33;5.50;17.80
8422;DHT22;4248;48.196;10.924;2023-12-28T08:04:59;5.70;17.60
8422;DHT22;4248;48.196;10.924;2023-12-28T08:07:24;5.90;17.30
8422;DHT22;4248;48.196;10.924;2023-12-28T08:09:50;6.10;17.20
8422;DHT22;4248;48.196;10.924;2023-12-28T08:12:16;6.30;17.00
8422;DHT22;4248;48.196;10.924;2023-12-28T08:14:42;6.60;16.70
8422;DHT22;4248;48.196;10.924;2023-12-28T08:17:08;6.70;16.30
8422;DHT22;4248;48.196;10.924;2023-12-28T08:19:33;7.00;16.00
8422;DHT22;4248;48.196;10.924;2023-12-28T08:21:59;7.10;15.70
8422;DHT22;4248;48.196;10.924;2023-12-28T08:24:24;7.20;15.60
8422;DHT22;4248;48.196;10.924;2023-12-28T08:26:50;7.30;15.40
8422;DHT22;4248;48.196;10.924;2023-12-28T08:29:16;7.40;15.40
8422;DHT22;4248;48.196;10.924;2023-12-28T08:31:43;7.40;15.20
8422;DHT22;4248;48.196;10.924;2023-12-28T08:34:08;7.50;15.10
8422;DHT22;4248;48.196;10.924;2023-12-28T08:36:35;7.60;14.80
8422;DHT22;4248;48.196;10.924;2023-12-28T08:39:00;7.80;14.60
8422;DHT22;4248;48.196;10.924;2023-12-28T08:41:26;7.90;14.70
8422;DHT22;4248;48.196;10.924;2023-12-28T08:43:52;8.10;13.60
8422;DHT22;4248;48.196;10.924;2023-12-28T08:46:20;8.30;13.50
8422;DHT22;4248;48.196;10.924;2023-12-28T08:48:46;8.40;13.10
8422;DHT22;4248;48.196;10.924;2023-12-28T08:51:12;8.50;12.90
8422;DHT22;4248;48.196;10.924;2023-12-28T08:53:40;8.60;12.90
8422;DHT22;4248;48.196;10.924;2023-12-28T08:56:20;8.60;13.00
8422;DHT22;4248;48.196;10.924;2023-12-28T08:58:46;8.60;13.10
8422;DHT22;4248;48.196;10.924;2023-12-28T09:01:23;8.60;13.30
8422;DHT22;4248;48.196;10.924;2023-12-28T09:03:49;8.60;13.20
8422;DHT22;4248;48.196;10.924;2023-12-28T09:06:16;8.70;13.30
8422;DHT22;4248;48.196;10.924;2023-12-28T09:08:43;8.80;13.10
8422;DHT22;4248;48.196;10.924;2023-12-28T09:11:13;9.10;12.90
8422;DHT22;4248;48.196;10.924;2023-12-28T09:13:39;9.30;12.40
8422;DHT22;4248;48.196;10.924;2023-12-28T09:16:07;9.50;12.00
8422;DHT22;4248;48.196;10.924;2023-12-28T09:18:33;9.70;11.70
8422;DHT22;4248;48.196;10.924;2023-12-28T09:20:58;9.80;11.30
8422;DHT22;4248;48.196;10.924;2023-12-28T09:23:24;10.00;10.20
8422;DHT22;4248;48.196;10.924;2023-12-28T09:25:50;10.20;10.00
8422;DHT22;4248;48.196;10.924;2023-12-28T09:28:15;10.30;9.80
8422;DHT22;4248;48.196;10.924;2023-12-28T09:30:41;10.30;9.50
8422;DHT22;4248;48.196;10.924;2023-12-28T09:33:06;10.40;9.40
8422;DHT22;4248;48.196;10.924;2023-12-28T09:35:32;10.50;9.30
8422;DHT22;4248;48.196;10.924;2023-12-28T09:37:57;10.50;8.60
8422;DHT22;4248;48.196;10.924;2023-12-28T09:40:24;10.40;9.20
8422;DHT22;4248;48.196;10.924;2023-12-28T09:43:15;10.40;9.10
8422;DHT22;4248;48.196;10.924;2023-12-28T09:45:46;10.60;9.00
8422;DHT22;4248;48.196;10.924;2023-12-28T09:48:15;10.60;8.90
8422;DHT22;4248;48.196;10.924;2023-12-28T09:50:42;10.70;8.80
8422;DHT22;4248;48.196;10.924;2023-12-28T09:53:07;10.80;8.80
8422;DHT22;4248;48.196;10.924;2023-12-28T09:55:33;10.90;8.70
8422;DHT22;4248;48.196;10.924;2023-12-28T09:58:00;11.00;8.40
8422;DHT22;4248;48.196;10.924;2023-12-28T10:00:26;11.10;8.20
8422;DHT22;4248;48.196;10.924;2023-12-28T10:02:52;11.20;8.00
8422;DHT22;4248;48.196;10.924;2023-12-28T10:05:18;11.30;7.80
8422;DHT22;4248;48.196;10.924;2023-12-28T10:07:44;11.30;7.60
8422;DHT22;4248;48.196;10.924;2023-12-28T10:10:10;11.40;7.40
8422;DHT22;4248;48.196;10.924;2023-12-28T10:12:37;11.60;7.10
8422;DHT22;4248;48.196;10.924;2023-12-28T10:15:04;11.50;6.80
8422;DHT22;4248;48.196;10.924;2023-12-28T10:17:32;11.50;6.50
8422;DHT22;4248;48.196;10.924;2023-12-28T10:19:59;11.50;6.50
8422;DHT22;4248;48.196;10.924;2023-12-28T10:22:37;11.60;6.40
8422;DHT22;4248;48.196;10.924;2023-12-28T10:25:03;11.60;6.20
8422;DHT22;4248;48.196;10.924;2023-12-28T10:27:29;11.70;6.10
8422;DHT22;4248;48.196;10.924;2023-12-28T10:29:57;11.80;6.30
8422;DHT22;4248;48.196;10.924;2023-12-28T10:32:23;11.80;6.30
8422;DHT22;4248;48.196;10.924;2023-12-28T10:34:51;11.80;6.40
8422;DHT22;4248;48.196;10.924;2023-12-28T10:37:19;11.90;6.60
8422;DHT22;4248;48.196;10.924;2023-12-28T10:39:47;11.90;6.50
8422;DHT22;4248;48.196;10.924;2023-12-28T10:42:21;11.90;6.30
8422;DHT22;4248;48.196;10.924;2023-12-28T10:44:52;12.20;6.30
8422;DHT22;4248;48.196;10.924;2023-12-28T10:47:18;12.10;6.10
8422;DHT22;4248;48.196;10.924;2023-12-28T10:49:48;12.10;6.10
8422;DHT22;4248;48.196;10.924;2023-12-28T10:52:16;12.10;6.30
8422;DHT22;4248;48.196;10.924;2023-12-28T10:55:03;12.20;6.10
8422;DHT22;4248;48.196;10.924;2023-12-28T10:57:39;12.20;5.80
8422;DHT22;4248;48.196;10.924;2023-12-28T11:00:16;12.10;5.70
8422;DHT22;4248;48.196;10.924;2023-12-28T11:02:47;12.10;5.70
8422;DHT22;4248;48.196;10.924;2023-12-28T11:05:15;12.10;5.70
8422;DHT22;4248;48.196;10.924;2023-12-28T11:07:43;12.10;5.80
8422;DHT22;4248;48.196;10.924;2023-12-28T11:10:09;12.10;5.70
8422;DHT22;4248;48.196;10.924;2023-12-28T11:12:36;12.00;5.70
8422;DHT22;4248;48.196;10.924;2023-12-28T11:15:02;12.10;5.70
8422;DHT22;4248;48.196;10.924;2023-12-28T11:17:30;12.10;5.70
8422;DHT22;4248;48.196;10.924;2023-12-28T11:19:57;12.10;5.30
8422;DHT22;4248;48.196;10.924;2023-12-28T11:22:23;12.20;5.00
8422;DHT22;4248;48.196;10.924;2023-12-28T11:24:53;12.20;4.90
8422;DHT22;4248;48.196;10.924;2023-12-28T11:27:19;12.20;4.60
8422;DHT22;4248;48.196;10.924;2023-12-28T11:29:44;12.20;4.50
8422;DHT22;4248;48.196;10.924;2023-12-28T11:32:10;12.20;4.50
8422;DHT22;4248;48.196;10.924;2023-12-28T11:34:37;12.10;4.50
8422;DHT22;4248;48.196;10.924;2023-12-28T11:37:07;12.10;4.50
8422;DHT22;4248;48.196;10.924;2023-12-28T11:39:37;12.10;4.40
8422;DHT22;4248;48.196;10.924;2023-12-28T11:42:09;12.00;4.30
8422;DHT22;4248;48.196;10.924;2023-12-28T11:44:42;11.90;4.40
8422;DHT22;4248;48.196;10.924;2023-12-28T11:47:25;11.80;4.30
8422;DHT22;4248;48.196;10.924;2023-12-28T11:49:52;11.80;4.40
8422;DHT22;4248;48.196;10.924;2023-12-28T11:52:24;11.70;4.50
8422;DHT22;4248;48.196;10.924;2023-12-28T11:54:50;11.80;4.30
8422;DHT22;4248;48.196;10.924;2023-12-28T11:57:16;11.70;4.20
8422;DHT22;4248;48.196;10.924;2023-12-28T11:59:42;11.70;4.20
8422;DHT22;4248;48.196;10.924;2023-12-28T12:02:08;11.70;4.20
8422;DHT22;4248;48.196;10.924;2023-12-28T12:04:34;11.70;4.10
8422;DHT22;4248;48.196;10.924;2023-12-28T12:07:04;11.70;4.00
8422;DHT22;4248;48.196;10.924;2023-12-28T12:09:30;11.70;3.90
8422;DHT22;4248;48.196;10.924;2023-12-28T12:12:00;11.70;4.00
8422;DHT22;4248;48.196;10.924;2023-12-28T12:14:25;11.70;4.00
8422;DHT22;4248;48.196;10.924;2023-12-28T12:16:51;11.70;3.90
8422;DHT22;4248;48.196;10.924;2023-12-28T12:19:18;11.70;3.80
8422;DHT22;4248;48.196;10.924;2023-12-28T12:21:43;11.70;3.80
8422;DHT22;4248;48.196;10.924;2023-12-28T12:24:10;11.70;3.80
8422;DHT22;4248;48.196;10.924;2023-12-28T12:26:35;11.70;3.60
8422;DHT22;4248;48.196;10.924;2023-12-28T12:29:01;11.80;3.70
8422;DHT22;4248;48.196;10.924;2023-12-28T12:31:27;11.90;3.60
8422;DHT22;4248;48.196;10.924;2023-12-28T12:33:53;11.80;4.50
8422;DHT22;4248;48.196;10.924;2023-12-28T12:36:19;11.80;3.60
8422;DHT22;4248;48.196;10.924;2023-12-28T12:38:47;11.80;3.60
8422;DHT22;4248;48.196;10.924;2023-12-28T12:41:13;11.80;3.70
8422;DHT22;4248;48.196;10.924;2023-12-28T12:43:40;12.00;3.80
8422;DHT22;4248;48.196;10.924;2023-12-28T12:46:06;11.80;3.80
8422;DHT22;4248;48.196;10.924;2023-12-28T12:48:32;11.80;3.80
8422;DHT22;4248;48.196;10.924;2023-12-28T12:50:57;11.80;3.80
8422;DHT22;4248;48.196;10.924;2023-12-28T12:53:23;11.80;3.80
8422;DHT22;4248;48.196;10.924;2023-12-28T12:55:53;11.80;3.90
8422;DHT22;4248;48.196;10.924;2023-12-28T12:58:19;11.80;3.80
8422;DHT22;4248;48.196;10.924;2023-12-28T13:00:46;11.80;3.80
8422;DHT22;4248;48.196;10.924;2023-12-28T13:03:12;11.80;3.90
8422;DHT22;4248;48.196;10.924;2023-12-28T13:05:37;11.80;3.80
8422;DHT22;4248;48.196;10.924;2023-12-28T13:08:04;11.80;3.70
8422;DHT22;4248;48.196;10.924;2023-12-28T13:10:31;11.90;3.70
8422;DHT22;4248;48.196;10.924;2023-12-28T13:12:56;11.90;3.60
8422;DHT22;4248;48.196;10.924;2023-12-28T13:15:22;11.90;3.60
8422;DHT22;4248;48.196;10.924;2023-12-28T13:17:47;11.90;3.60
8422;DHT22;4248;48.196;10.924;2023-12-28T13:20:13;11.90;3.70
8422;DHT22;4248;48.196;10.924;2023-12-28T13:22:39;11.90;3.90
8422;DHT22;4248;48.196;10.924;2023-12-28T13:25:05;11.90;3.90
8422;DHT22;4248;48.196;10.924;2023-12-28T13:27:31;11.90;3.90
8422;DHT22;4248;48.196;10.924;2023-12-28T13:29:57;11.90;3.90
8422;DHT22;4248;48.196;10.924;2023-12-28T13:32:23;11.80;4.00
8422;DHT22;4248;48.196;10.924;2023-12-28T13:34:49;11.80;4.10
8422;DHT22;4248;48.196;10.924;2023-12-28T13:37:16;11.80;4.10
8422;DHT22;4248;48.196;10.924;2023-12-28T13:39:42;11.70;4.20
8422;DHT22;4248;48.196;10.924;2023-12-28T13:42:07;11.70;4.30
8422;DHT22;4248;48.196;10.924;2023-12-28T13:44:36;11.80;4.30
8422;DHT22;4248;48.196;10.924;2023-12-28T13:47:02;11.80;4.30
8422;DHT22;4248;48.196;10.924;2023-12-28T13:49:28;11.80;4.40
8422;DHT22;4248;48.196;10.924;2023-12-28T13:51:54;11.80;4.50
8422;DHT22;4248;48.196;10.924;2023-12-28T13:54:20;11.70;4.50
8422;DHT22;4248;48.196;10.924;2023-12-28T13:56:46;11.60;4.60
8422;DHT22;4248;48.196;10.924;2023-12-28T13:59:13;11.50;4.80
8422;DHT22;4248;48.196;10.924;2023-12-28T14:01:38;11.50;4.90
8422;DHT22;4248;48.196;10.924;2023-12-28T14:04:04;11.50;5.20
8422;DHT22;4248;48.196;10.924;2023-12-28T14:06:30;11.40;5.20
8422;DHT22;4248;48.196;10.924;2023-12-28T14:08:56;11.30;5.10
8422;DHT22;4248;48.196;10.924;2023-12-28T14:11:25;11.30;5.20
8422;DHT22;4248;48.196;10.924;2023-12-28T14:13:51;11.20;5.10
8422;DHT22;4248;48.196;10.924;2023-12-28T14:16:16;11.10;5.00
8422;DHT22;4248;48.196;10.924;2023-12-28T14:18:42;11.10;5.00
8422;DHT22;4248;48.196;10.924;2023-12-28T14:21:09;10.90;5.30
8422;DHT22;4248;48.196;10.924;2023-12-28T14:23:35;10.80;5.70
8422;DHT22;4248;48.196;10.924;2023-12-28T14:26:06;10.80;6.20
8422;DHT22;4248;48.196;10.924;2023-12-28T14:28:33;10.70;6.40
8422;DHT22;4248;48.196;10.924;2023-12-28T14:31:02;10.60;6.70
8422;DHT22;4248;48.196;10.924;2023-12-28T14:33:27;10.60;6.70
8422;DHT22;4248;48.196;10.924;2023-12-28T14:35:53;10.60;6.80
8422;DHT22;4248;48.196;10.924;2023-12-28T14:38:19;10.60;6.80
8422;DHT22;4248;48.196;10.924;2023-12-28T14:40:44;10.50;6.90
8422;DHT22;4248;48.196;10.924;2023-12-28T14:43:10;10.50;6.90
8422;DHT22;4248;48.196;10.924;2023-12-28T14:45:35;10.40;7.00
8422;DHT22;4248;48.196;10.924;2023-12-28T14:48:01;10.40;7.20
8422;DHT22;4248;48.196;10.924;2023-12-28T14:50:27;10.30;7.30
8422;DHT22;4248;48.196;10.924;2023-12-28T14:52:53;10.30;7.50
8422;DHT22;4248;48.196;10.924;2023-12-28T14:55:18;10.20;7.60
8422;DHT22;4248;48.196;10.924;2023-12-28T14:57:44;10.10;7.70
8422;DHT22;4248;48.196;10.924;2023-12-28T15:00:10;10.20;7.70
8422;DHT22;4248;48.196;10.924;2023-12-28T15:02:36;10.10;7.60
8422;DHT22;4248;48.196;10.924;2023-12-28T15:05:01;10.20;7.60
8422;DHT22;4248;48.196;10.924;2023-12-28T15:07:27;10.10;7.50
8422;DHT22;4248;48.196;10.924;2023-12-28T15:09:53;10.20;7.50
8422;DHT22;4248;48.196;10.924;2023-12-28T15:12:22;10.10;7.40
8422;DHT22;4248;48.196;10.924;2023-12-28T15:14:48;10.10;7.50
8422;DHT22;4248;48.196;10.924;2023-12-28T15:17:13;10.10;7.50
8422;DHT22;4248;48.196;10.924;2023-12-28T15:19:39;10.10;7.40
8422;DHT22;4248;48.196;10.924;2023-12-28T15:22:05;10.10;7.20
8422;DHT22;4248;48.196;10.924;2023-12-28T15:24:31;10.10;7.30
8422;DHT22;4248;48.196;10.924;2023-12-28T15:26:57;10.10;7.10
8422;DHT22;4248;48.196;10.924;2023-12-28T15:29:22;10.10;7.20
8422;DHT22;4248;48.196;10.924;2023-12-28T15:31:48;10.10;7.10
8422;DHT22;4248;48.196;10.924;2023-12-28T15:34:13;10.10;7.00
8422;DHT22;4248;48.196;10.924;2023-12-28T15:36:39;10.10;6.90
8422;DHT22;4248;48.196;10.924;2023-12-28T15:39:05;10.10;6.70
8422;DHT22;4248;48.196;10.924;2023-12-28T15:41:31;10.10;6.70
8422;DHT22;4248;48.196;10.924;2023-12-28T15:43:57;10.10;6.80
8422;DHT22;4248;48.196;10.924;2023-12-28T15:46:22;10.10;6.80
8422;DHT22;4248;48.196;10.924;2023-12-28T15:48:48;10.00;6.70
8422;DHT22;4248;48.196;10.924;2023-12-28T15:51:14;10.00;6.70
8422;DHT22;4248;48.196;10.924;2023-12-28T15:53:39;10.00;6.80
8422;DHT22;4248;48.196;10.924;2023-12-28T15:56:05;9.90;7.70
8422;DHT22;4248;48.196;10.924;2023-12-28T15:58:31;9.80;7.90
8422;DHT22;4248;48.196;10.924;2023-12-28T16:00:56;9.70;8.10
8422;DHT22;4248;48.196;10.924;2023-12-28T16:03:22;9.70;8.50
8422;DHT22;4248;48.196;10.924;2023-12-28T16:05:47;9.60;8.60